createdAt,value
2022-10-12T00:04:59.018Z,96279.56
2022-10-12T00:10:00.418Z,96287.22
2022-10-12T00:15:01.806Z,96293.13
2022-10-12T00:20:04.434Z,96287.94
2022-10-12T00:25:06.491Z,96289.22
2022-10-12T00:30:08.548Z,96289.22
2022-10-12T00:35:10.004Z,96288.38
2022-10-12T00:40:11.882Z,96295.22
2022-10-12T00:45:13.274Z,96281.53
2022-10-12T00:50:18.016Z,96282.19
2022-10-12T00:55:23.262Z,96282.91
2022-10-12T01:00:25.055Z,96285.03
2022-10-12T01:05:26.918Z,96286.28
2022-10-12T01:10:28.665Z,96287.22
2022-10-12T01:15:42.416Z,96287.22
2022-10-12T01:21:10.194Z,96290.03
2022-10-12T01:26:17.599Z,96287.50
2022-10-12T01:31:57.562Z,96286.56
2022-10-12T01:37:10.593Z,96284.03
2022-10-12T01:42:19.014Z,96288.38
2022-10-12T01:47:20.628Z,96281.91
2022-10-12T01:52:28.190Z,96282.78
2022-10-12T01:57:43.786Z,96275.78
2022-10-12T02:03:10.529Z,96282.63
2022-10-12T02:08:41.671Z,96284.56
2022-10-12T02:13:52.583Z,96287.94
2022-10-12T02:18:57.499Z,96282.38
2022-10-12T02:24:05.165Z,96269.22
2022-10-12T02:29:13.242Z,96277.31
2022-10-12T02:34:32.369Z,96279.97
2022-10-12T02:39:42.393Z,96271.47
2022-10-12T02:44:45.017Z,96275.13
2022-10-12T02:49:47.345Z,96269.97
2022-10-12T02:54:48.769Z,96271.22
2022-10-12T02:59:50.199Z,96273.88
2022-10-12T03:04:51.627Z,96278.50
2022-10-12T03:09:53.037Z,96269.88
2022-10-12T03:14:54.426Z,96273.56
2022-10-12T03:19:55.830Z,96282.66
2022-10-12T03:24:57.217Z,96280.59
2022-10-12T03:29:58.594Z,96282.22
2022-10-12T03:34:59.992Z,96283.44
2022-10-12T03:40:01.833Z,96289.44
2022-10-12T03:45:03.603Z,96288.31
2022-10-12T03:50:05.810Z,96285.47
2022-10-12T03:55:07.528Z,96290.53
2022-10-12T04:00:09.696Z,96283.97
2022-10-12T04:05:14.119Z,96286.91
2022-10-12T04:10:15.611Z,96284.84
2022-10-12T04:15:17.133Z,96302.97
2022-10-12T04:20:18.711Z,96292.09
2022-10-12T04:25:20.128Z,96300.75
2022-10-12T04:30:21.531Z,96295.75
2022-10-12T04:35:22.951Z,96301.03
2022-10-12T04:40:24.498Z,96312.41
2022-10-12T04:45:25.888Z,96304.22
2022-10-12T04:50:29.998Z,96312.81
2022-10-12T04:55:31.707Z,96307.78
2022-10-12T05:00:33.105Z,96310.28
2022-10-12T05:05:34.534Z,96306.47
2022-10-12T05:10:35.943Z,96304.78
2022-10-12T05:15:37.326Z,96310.41
2022-10-12T05:20:38.716Z,96303.81
2022-10-12T05:25:40.169Z,96303.50
2022-10-12T05:30:41.604Z,96311.72
2022-10-12T05:35:47.479Z,96309.22
2022-10-12T05:40:50.288Z,96310.72
2022-10-12T05:45:51.675Z,96313.31
2022-10-12T05:50:54.248Z,96314.63
2022-10-12T05:55:57.734Z,96320.41
2022-10-12T06:01:10.931Z,96323.97
2022-10-12T06:06:12.313Z,96320.16
2022-10-12T06:11:13.854Z,96319.59
2022-10-12T06:16:15.261Z,96317.44
2022-10-12T06:26:38.004Z,96316.69
2022-10-12T06:31:39.460Z,96312.16
2022-10-12T06:36:40.963Z,96323.34
2022-10-12T06:41:42.367Z,96319.25
2022-10-12T06:46:43.746Z,96318.94
2022-10-12T06:51:45.214Z,96323.91
2022-10-12T06:56:46.599Z,96320.38
2022-10-12T07:01:49.029Z,96327.81
2022-10-12T07:06:50.429Z,96327.19
2022-10-12T07:11:51.854Z,96333.66
2022-10-12T07:16:55.460Z,96330.34
2022-10-12T07:21:57.062Z,96335.19
2022-10-12T07:26:58.442Z,96332.47
2022-10-12T07:32:00.081Z,96341.63
2022-10-12T07:37:01.785Z,96332.19
2022-10-12T07:42:03.487Z,96337.38
2022-10-12T07:47:04.960Z,96326.69
2022-10-12T07:52:06.376Z,96334.78
2022-10-12T07:57:07.787Z,96338.97
2022-10-12T08:02:11.703Z,96341.97
2022-10-12T08:07:13.306Z,96338.56
2022-10-12T08:12:14.743Z,96334.47
2022-10-12T08:17:16.149Z,96339.16
2022-10-12T08:22:17.550Z,96337.72
2022-10-12T08:27:18.958Z,96335.31
2022-10-12T08:32:20.341Z,96337.81
2022-10-12T08:37:21.716Z,96339.16
2022-10-12T08:42:29.058Z,96334.25
2022-10-12T08:47:41.971Z,96324.97
2022-10-12T08:52:52.027Z,96328.31
2022-10-12T08:57:54.671Z,96334.13
2022-10-12T09:03:20.547Z,96336.84
2022-10-12T09:08:42.170Z,96339.84
2022-10-12T09:14:02.772Z,96340.47
2022-10-12T09:19:18.362Z,96352.13
2022-10-12T09:24:25.247Z,96355.03
2022-10-12T09:29:30.062Z,96356.38
2022-10-12T09:34:32.722Z,96353.63
2022-10-12T09:39:36.678Z,96354.84
2022-10-12T09:45:24.154Z,96354.25
2022-10-12T09:50:40.341Z,96347.72
2022-10-12T09:55:52.909Z,96344.06
2022-10-12T10:01:22.253Z,96347.19
2022-10-12T10:06:25.018Z,96346.28
2022-10-12T10:11:28.882Z,96334.19
2022-10-12T10:16:30.547Z,96341.28
2022-10-12T10:21:34.998Z,96336.53
2022-10-12T10:26:54.892Z,96329.25
2022-10-12T10:32:19.859Z,96329.25
2022-10-12T10:37:23.036Z,96329.56
2022-10-12T10:42:30.542Z,96334.97
2022-10-12T10:47:33.923Z,96326.53
2022-10-12T10:52:37.057Z,96322.69
2022-10-12T10:57:44.262Z,96320.97
2022-10-12T11:02:50.848Z,96323.75
2022-10-12T11:08:02.451Z,96329.41
2022-10-12T11:13:14.748Z,96317.81
2022-10-12T11:18:30.566Z,96322.97
2022-10-12T11:23:42.242Z,96316.66
2022-10-12T11:28:44.215Z,96311.22
2022-10-12T11:33:47.069Z,96304.38
2022-10-12T11:38:54.461Z,96301.38
2022-10-12T11:44:07.315Z,96298.91
2022-10-12T11:49:26.146Z,96293.31
2022-10-12T11:54:35.259Z,96293.06
2022-10-12T11:59:52.968Z,96294.91
2022-10-12T12:04:55.008Z,96292.94
2022-10-12T12:09:56.735Z,96292.34
2022-10-12T12:15:05.918Z,96289.34
2022-10-12T12:20:44.065Z,96287.84
2022-10-12T12:25:45.635Z,96277.63
2022-10-12T12:31:02.577Z,96277.81
2022-10-12T12:36:07.669Z,96276.66
2022-10-12T12:41:18.154Z,96271.19
2022-10-12T12:46:20.753Z,96278.84
2022-10-12T12:51:36.744Z,96279.19
2022-10-12T12:56:50.585Z,96274.34
2022-10-12T13:02:29.306Z,96268.53
2022-10-12T13:07:51.688Z,96261.50
2022-10-12T13:12:59.174Z,96268.97
2022-10-12T13:18:42.212Z,96271.50
2022-10-12T13:23:41.209Z,96273.00
2022-10-12T13:28:43.316Z,96269.16
2022-10-12T13:33:49.355Z,96269.41
2022-10-12T13:38:59.234Z,96262.16
2022-10-12T13:44:04.029Z,96263.03
2022-10-12T13:49:26.341Z,96261.53
2022-10-12T13:54:35.395Z,96253.34
2022-10-12T13:59:38.776Z,96251.19
2022-10-12T14:04:42.831Z,96244.00
2022-10-12T14:09:47.468Z,96245.00
2022-10-12T14:14:49.763Z,96239.34
2022-10-12T14:19:53.660Z,96234.66
2022-10-12T14:25:14.772Z,96236.28
2022-10-12T14:30:18.368Z,96249.28
2022-10-12T14:35:26.527Z,96253.25
2022-10-12T14:40:36.622Z,96251.75
2022-10-12T14:45:38.217Z,96254.44
2022-10-12T14:50:39.638Z,96256.38
2022-10-12T14:55:41.997Z,96243.72
2022-10-12T15:00:43.875Z,96247.66
2022-10-12T15:05:45.302Z,96247.19
2022-10-12T15:10:50.556Z,96247.81
2022-10-12T15:15:53.552Z,96247.16
2022-10-12T15:20:55.422Z,96243.25
2022-10-12T15:25:56.825Z,96241.91
2022-10-12T15:36:21.614Z,96242.53
2022-10-12T15:41:25.697Z,96238.50
2022-10-12T15:46:27.161Z,96252.97
2022-10-12T15:51:28.699Z,96251.78
2022-10-12T15:56:30.087Z,96252.25
2022-10-12T16:01:33.675Z,96246.88
2022-10-12T16:06:35.051Z,96240.34
2022-10-12T16:11:36.432Z,96238.81
2022-10-12T16:16:37.863Z,96244.88
2022-10-12T16:21:39.279Z,96246.06
2022-10-12T16:26:44.858Z,96244.66
2022-10-12T16:31:46.571Z,96247.72
2022-10-12T16:36:47.975Z,96247.66
2022-10-12T16:41:49.387Z,96246.34
2022-10-12T16:46:50.873Z,96250.25
2022-10-12T16:51:52.287Z,96259.06
2022-10-12T16:56:53.714Z,96262.94
2022-10-12T17:01:55.131Z,96265.41
2022-10-12T17:06:56.552Z,96263.00
2022-10-12T17:11:57.975Z,96271.50
2022-10-12T17:16:59.476Z,96272.25
2022-10-12T17:22:02.428Z,96274.59
2022-10-12T17:27:05.820Z,96271.13
2022-10-12T17:32:09.233Z,96271.94
2022-10-12T17:37:15.161Z,96274.22
2022-10-12T17:42:16.925Z,96276.66
2022-10-12T17:47:18.720Z,96278.88
2022-10-12T17:52:20.398Z,96288.06
2022-10-12T17:57:21.856Z,96289.06
2022-10-12T18:02:23.290Z,96287.44
2022-10-12T18:07:24.748Z,96294.81
2022-10-12T18:12:26.130Z,96284.50
2022-10-12T18:17:27.530Z,96293.28
2022-10-12T18:22:29.386Z,96284.78
2022-10-12T18:27:30.808Z,96287.59
2022-10-12T18:32:32.235Z,96287.16
2022-10-12T18:37:33.647Z,96279.09
2022-10-12T18:42:35.060Z,96288.88
2022-10-12T18:47:37.324Z,96286.16
2022-10-12T18:52:38.749Z,96291.47
2022-10-12T18:57:40.318Z,96287.97
2022-10-12T19:02:41.763Z,96279.69
2022-10-12T19:07:43.190Z,96282.97
2022-10-12T19:12:45.845Z,96291.16
2022-10-12T19:17:47.371Z,96289.59
2022-10-12T19:22:48.824Z,96305.44
2022-10-12T19:27:50.295Z,96306.69
2022-10-12T19:32:51.815Z,96301.63
2022-10-12T19:37:53.213Z,96295.25
2022-10-12T19:42:54.598Z,96294.28
2022-10-12T19:47:56.070Z,96297.41
2022-10-12T19:52:57.528Z,96296.81
2022-10-12T19:57:58.989Z,96301.47
2022-10-12T20:03:00.510Z,96306.50
2022-10-12T20:08:01.925Z,96309.16
2022-10-12T20:13:03.437Z,96311.75
2022-10-12T20:18:04.980Z,96318.59
2022-10-12T20:23:06.417Z,96310.25
2022-10-12T20:28:08.422Z,96310.09
2022-10-12T20:33:10.097Z,96311.19
2022-10-12T20:38:11.525Z,96302.53
2022-10-12T20:43:14.465Z,96297.75
2022-10-12T20:48:15.865Z,96296.91
2022-10-12T20:53:17.274Z,96311.97
2022-10-12T20:58:18.684Z,96310.28
2022-10-12T21:03:20.088Z,96320.44
2022-10-12T21:08:21.496Z,96313.41
2022-10-12T21:13:22.973Z,96304.59
2022-10-12T21:18:24.845Z,96304.97
2022-10-12T21:23:27.294Z,96307.63
2022-10-12T21:28:28.700Z,96306.94
2022-10-12T21:33:30.201Z,96311.13
2022-10-12T21:38:31.617Z,96309.03
2022-10-12T21:43:33.427Z,96298.59
2022-10-12T21:48:35.396Z,96296.25
2022-10-12T21:53:38.092Z,96298.69
2022-10-12T21:58:39.600Z,96297.66
2022-10-12T22:03:42.459Z,96297.38
2022-10-12T22:08:44.946Z,96304.91
2022-10-12T22:13:52.989Z,96298.34
2022-10-12T22:18:56.780Z,96294.41
2022-10-12T22:24:01.927Z,96285.53
2022-10-12T22:29:05.036Z,96295.16
2022-10-12T22:34:06.842Z,96294.03
2022-10-12T22:39:10.694Z,96293.78
2022-10-12T22:44:12.072Z,96282.72
2022-10-12T22:49:13.493Z,96279.34
2022-10-12T22:54:14.883Z,96278.66
2022-10-12T22:59:16.314Z,96272.63
2022-10-12T23:04:17.719Z,96273.84
2022-10-12T23:09:19.168Z,96270.94
2022-10-12T23:14:20.559Z,96271.19
2022-10-12T23:19:21.962Z,96260.25
2022-10-12T23:24:23.380Z,96261.50
2022-10-12T23:29:24.784Z,96255.25
2022-10-12T23:34:26.292Z,96252.03
2022-10-12T23:39:27.712Z,96254.88
2022-10-12T23:44:29.116Z,96250.06
2022-10-12T23:49:30.531Z,96247.56
2022-10-12T23:54:35.720Z,96242.59
2022-10-12T23:59:37.131Z,96251.28
